Time;durP1;ratioP1;P1;durP2;ratioP2;P2;SDS_P1;SDS_P2;PMS_P1;PMS_P2;Temp;Humidity;BMP_temperature;BMP_pressure;BME280_temperature;BME280_humidity;BME280_pressure;Samples;Min_cycle;Max_cycle;Signal;HPM_P1;HPM_P2
2023/02/09 00:01:18;;;;;;;13.18;6.28;;;;;;;;;;5066202;28;20269;-43
2023/02/09 00:03:44;;;;;;;10.82;6.78;;;;;;;;;;5064410;28;20162;-43
2023/02/09 00:06:12;;;;;;;9.07;6.00;;;;;;;;;;5066438;28;20167;-43
2023/02/09 00:08:38;;;;;;;12.15;8.27;;;;;;;;;;5065996;28;20194;-43
2023/02/09 00:11:12;;;;;;;9.87;6.83;;;;;;;;;;5068041;28;20204;-43
2023/02/09 00:13:38;;;;;;;9.40;6.40;;;;;;;;;;5070761;28;20456;-40
2023/02/09 00:16:04;;;;;;;7.43;5.68;;;;;;;;;;5062385;28;20182;-41
2023/02/09 00:18:32;;;;;;;10.10;6.20;;;;;;;;;;5070614;28;20289;-41
2023/02/09 00:21:02;;;;;;;11.80;7.40;;;;;;;;;;5068339;28;20642;-40
2023/02/09 00:23:29;;;;;;;11.15;6.38;;;;;;;;;;5065984;28;20209;-41
2023/02/09 00:25:55;;;;;;;11.68;7.03;;;;;;;;;;5065404;28;20185;-42
2023/02/09 00:28:21;;;;;;;10.10;6.45;;;;;;;;;;5065072;28;20199;-41
2023/02/09 00:30:47;;;;;;;10.40;7.32;;;;;;;;;;5069875;28;20167;-41
2023/02/09 00:33:13;;;;;;;11.45;6.70;;;;;;;;;;5064085;28;20654;-40
2023/02/09 00:35:40;;;;;;;11.60;6.40;;;;;;;;;;5068679;28;20308;-42
2023/02/09 00:38:06;;;;;;;10.63;6.53;;;;;;;;;;5068878;28;20284;-41
2023/02/09 00:40:33;;;;;;;9.52;6.82;;;;;;;;;;5065788;28;20704;-42
2023/02/09 00:42:59;;;;;;;11.80;7.32;;;;;;;;;;5065944;28;20324;-42
2023/02/09 00:45:28;;;;;;;11.70;7.43;;;;;;;;;;5066162;28;20225;-43
2023/02/09 00:47:54;;;;;;;9.10;6.72;;;;;;;;;;5065527;28;20216;-42
2023/02/09 00:50:20;;;;;;;14.73;8.13;;;;;;;;;;5065495;28;20559;-45
2023/02/09 00:52:45;;;;;;;13.40;7.40;;;;;;;;;;5069865;28;20415;-40
2023/02/09 00:55:11;;;;;;;8.30;6.33;;;;;;;;;;5063254;28;20923;-43
2023/02/09 00:57:37;;;;;;;12.50;8.00;;;;;;;;;;5072628;28;20832;-43
2023/02/09 01:00:05;;;;;;;14.27;7.87;;;;;;;;;;5067005;28;20474;-43
2023/02/09 01:02:31;;;;;;;12.80;6.80;;;;;;;;;;5065365;28;20495;-43
2023/02/09 01:04:57;;;;;;;9.55;6.10;;;;;;;;;;5064568;28;20190;-43
2023/02/09 01:07:23;;;;;;;14.43;7.53;;;;;;;;;;5065071;28;20234;-43
2023/02/09 01:09:48;;;;;;;13.13;8.00;;;;;;;;;;5068942;28;20413;-43
2023/02/09 01:12:14;;;;;;;12.30;7.53;;;;;;;;;;5070067;28;20946;-42
2023/02/09 01:14:41;;;;;;;13.63;7.13;;;;;;;;;;5062510;28;20416;-43
2023/02/09 01:17:07;;;;;;;13.90;7.55;;;;;;;;;;5068263;28;20205;-43
2023/02/09 01:19:33;;;;;;;10.30;6.65;;;;;;;;;;5065015;28;20223;-43
2023/02/09 01:21:59;;;;;;;13.40;7.88;;;;;;;;;;5065078;28;20545;-43
2023/02/09 01:24:25;;;;;;;11.47;7.20;;;;;;;;;;5064128;28;20171;-44
2023/02/09 01:26:51;;;;;;;16.07;7.80;;;;;;;;;;5068260;28;21061;-43
2023/02/09 01:29:18;;;;;;;12.10;7.27;;;;;;;;;;5062805;28;20796;-43
2023/02/09 01:31:44;;;;;;;16.92;8.60;;;;;;;;;;5069486;28;20409;-42
2023/02/09 01:34:13;;;;;;;12.02;6.90;;;;;;;;;;5067954;28;20185;-43
2023/02/09 01:36:39;;;;;;;12.75;7.50;;;;;;;;;;5064342;28;20178;-43
2023/02/09 01:39:05;;;;;;;17.67;8.43;;;;;;;;;;5064545;28;20198;-43
2023/02/09 01:41:31;;;;;;;12.90;7.23;;;;;;;;;;5066105;28;20179;-42
2023/02/09 01:43:57;;;;;;;13.93;8.13;;;;;;;;;;5063890;28;20405;-43
2023/02/09 01:46:24;;;;;;;14.03;8.00;;;;;;;;;;5064239;28;20168;-40
2023/02/09 01:48:52;;;;;;;15.70;8.38;;;;;;;;;;5067706;28;20440;-43
2023/02/09 01:51:19;;;;;;;10.93;6.18;;;;;;;;;;5069226;28;20185;-43
2023/02/09 01:53:45;;;;;;;14.38;7.75;;;;;;;;;;5064153;28;20658;-43
2023/02/09 01:56:14;;;;;;;12.07;7.00;;;;;;;;;;5064229;28;20721;-43
2023/02/09 01:58:40;;;;;;;12.93;7.75;;;;;;;;;;5063209;28;20206;-43
2023/02/09 02:01:06;;;;;;;15.70;7.50;;;;;;;;;;5063729;28;20206;-41
2023/02/09 02:03:32;;;;;;;10.73;6.40;;;;;;;;;;5063477;28;20764;-40
2023/02/09 02:06:02;;;;;;;10.75;7.63;;;;;;;;;;5065503;28;20167;-42
2023/02/09 02:08:31;;;;;;;15.57;9.20;;;;;;;;;;5068494;28;20198;-41
2023/02/09 02:10:58;;;;;;;13.32;8.55;;;;;;;;;;5061906;28;20179;-40
2023/02/09 02:13:24;;;;;;;13.05;7.32;;;;;;;;;;5068704;28;20178;-41
2023/02/09 02:16:09;;;;;;;15.07;8.73;;;;;;;;;;5064325;28;20714;-41
2023/02/09 02:18:46;;;;;;;17.83;9.40;;;;;;;;;;5063457;28;20483;-40
2023/02/09 02:21:30;;;;;;;13.98;7.90;;;;;;;;;;5064064;28;20181;-40
2023/02/09 02:24:14;;;;;;;11.43;7.03;;;;;;;;;;5065450;28;20261;-40
2023/02/09 02:26:45;;;;;;;13.10;7.93;;;;;;;;;;5063520;28;20524;-41
2023/02/09 02:29:20;;;;;;;18.38;9.18;;;;;;;;;;5063643;28;20713;-45
2023/02/09 02:31:46;;;;;;;13.68;8.55;;;;;;;;;;5062429;28;20236;-41
2023/02/09 02:34:21;;;;;;;14.60;8.60;;;;;;;;;;5063669;28;20583;-40
2023/02/09 02:37:06;;;;;;;17.55;7.50;;;;;;;;;;5059996;28;20446;-40
2023/02/09 02:39:32;;;;;;;13.10;7.80;;;;;;;;;;5063367;28;20678;-44
2023/02/09 02:45:01;;;;;;;12.02;8.13;;;;;;;;;;5059715;28;20416;-40
2023/02/09 02:47:29;;;;;;;14.55;8.45;;;;;;;;;;5068191;28;20585;-46
2023/02/09 02:49:57;;;;;;;13.43;7.82;;;;;;;;;;5065278;28;20194;-44
2023/02/09 02:52:23;;;;;;;14.60;8.40;;;;;;;;;;5058179;28;20538;-44
2023/02/09 02:54:57;;;;;;;12.40;7.35;;;;;;;;;;5068025;28;20197;-44
2023/02/09 02:57:26;;;;;;;15.02;7.88;;;;;;;;;;5062060;28;20216;-44
2023/02/09 02:59:55;;;;;;;14.63;8.70;;;;;;;;;;5063164;28;20174;-44
2023/02/09 03:02:23;;;;;;;11.13;7.50;;;;;;;;;;5062695;28;20254;-45
2023/02/09 03:04:51;;;;;;;13.88;7.90;;;;;;;;;;5066547;28;20162;-45
2023/02/09 03:07:19;;;;;;;16.38;8.50;;;;;;;;;;5061089;28;20761;-44
2023/02/09 03:09:52;;;;;;;10.65;6.55;;;;;;;;;;5070403;28;20255;-44
2023/02/09 03:12:18;;;;;;;19.52;8.32;;;;;;;;;;5067532;28;20193;-43
2023/02/09 03:14:52;;;;;;;12.50;8.40;;;;;;;;;;5062986;28;20369;-44
2023/02/09 03:17:30;;;;;;;12.60;7.53;;;;;;;;;;5062573;28;20936;-44
2023/02/09 03:19:59;;;;;;;14.45;7.68;;;;;;;;;;5064628;28;20171;-46
2023/02/09 03:22:36;;;;;;;12.35;7.75;;;;;;;;;;5063128;28;20726;-44
2023/02/09 03:25:07;;;;;;;14.02;7.72;;;;;;;;;;5062575;28;20177;-44
2023/02/09 03:27:42;;;;;;;15.20;8.18;;;;;;;;;;5062793;28;20245;-45
2023/02/09 03:30:09;;;;;;;12.07;8.25;;;;;;;;;;5064609;28;20170;-44
2023/02/09 03:32:39;;;;;;;13.82;8.65;;;;;;;;;;5067780;28;20193;-44
2023/02/09 03:35:05;;;;;;;19.63;9.00;;;;;;;;;;5060412;28;20183;-44
2023/02/09 03:37:31;;;;;;;15.63;8.13;;;;;;;;;;5067439;28;20221;-40
2023/02/09 03:39:57;;;;;;;15.67;8.07;;;;;;;;;;5065300;28;20170;-40
2023/02/09 03:42:23;;;;;;;14.37;9.50;;;;;;;;;;5063116;28;20466;-41
2023/02/09 03:44:49;;;;;;;14.80;7.43;;;;;;;;;;5062298;28;20408;-41
2023/02/09 03:47:15;;;;;;;12.17;7.37;;;;;;;;;;5065763;28;20431;-44
2023/02/09 03:49:42;;;;;;;15.47;9.93;;;;;;;;;;5059575;28;20436;-44
2023/02/09 03:52:09;;;;;;;17.40;8.50;;;;;;;;;;5062269;28;20410;-44
2023/02/09 03:54:35;;;;;;;12.93;9.27;;;;;;;;;;5066948;28;20196;-43
2023/02/09 03:57:02;;;;;;;13.35;7.78;;;;;;;;;;5065437;28;20194;-43
2023/02/09 03:59:28;;;;;;;17.13;9.23;;;;;;;;;;5062647;28;20278;-44
2023/02/09 04:01:55;;;;;;;11.40;8.02;;;;;;;;;;5064159;28;20661;-43
2023/02/09 04:04:21;;;;;;;16.98;9.10;;;;;;;;;;5062047;28;20183;-43
2023/02/09 04:06:47;;;;;;;19.08;7.50;;;;;;;;;;5062527;28;20182;-43
2023/02/09 04:09:13;;;;;;;13.52;8.32;;;;;;;;;;5063162;28;20217;-42
2023/02/09 04:11:39;;;;;;;13.93;8.25;;;;;;;;;;5067426;28;20175;-43
2023/02/09 04:14:07;;;;;;;14.30;8.73;;;;;;;;;;5065446;28;20219;-43
2023/02/09 04:16:34;;;;;;;16.65;7.93;;;;;;;;;;5060928;28;20882;-43
2023/02/09 04:19:01;;;;;;;15.68;7.90;;;;;;;;;;5065336;28;20674;-42
2023/02/09 04:21:27;;;;;;;16.02;8.15;;;;;;;;;;5064856;28;20186;-43
2023/02/09 04:23:53;;;;;;;13.83;7.20;;;;;;;;;;5065406;28;20179;-42
2023/02/09 04:26:19;;;;;;;12.20;7.47;;;;;;;;;;5066368;28;20404;-42
2023/02/09 04:28:45;;;;;;;15.85;9.95;;;;;;;;;;5070204;28;20495;-42
2023/02/09 04:31:11;;;;;;;16.83;9.60;;;;;;;;;;5063628;28;20174;-43
2023/02/09 04:33:37;;;;;;;13.77;8.55;;;;;;;;;;5070623;28;20413;-43
2023/02/09 04:36:04;;;;;;;14.85;9.50;;;;;;;;;;5068555;28;20174;-43
2023/02/09 04:38:30;;;;;;;17.60;9.32;;;;;;;;;;5065529;28;20214;-43
2023/02/09 04:40:58;;;;;;;15.17;9.10;;;;;;;;;;5065945;28;20224;-43
2023/02/09 04:43:24;;;;;;;19.17;9.15;;;;;;;;;;5066773;28;20915;-43
2023/02/09 04:45:50;;;;;;;13.93;7.53;;;;;;;;;;5063626;28;20170;-40
2023/02/09 04:48:17;;;;;;;18.95;8.27;;;;;;;;;;5064652;28;20959;-44
2023/02/09 04:50:43;;;;;;;13.52;8.63;;;;;;;;;;5062068;28;20179;-44
2023/02/09 04:53:09;;;;;;;12.73;8.38;;;;;;;;;;5069728;28;20189;-43
2023/02/09 04:55:41;;;;;;;18.23;8.32;;;;;;;;;;5073231;28;20256;-43
2023/02/09 05:00:54;;;;;;;13.48;8.13;;;;;;;;;;5069911;28;20585;-43
2023/02/09 05:03:20;;;;;;;15.60;9.20;;;;;;;;;;5060346;28;20171;-43
2023/02/09 05:05:46;;;;;;;18.40;9.30;;;;;;;;;;5053279;28;20748;-43
2023/02/09 05:08:11;;;;;;;18.40;8.90;;;;;;;;;;5053491;28;20912;-43
2023/02/09 05:10:38;;;;;;;19.57;9.97;;;;;;;;;;5053865;28;20409;-42
2023/02/09 05:13:04;;;;;;;21.00;11.32;;;;;;;;;;5053685;28;20489;-43
2023/02/09 05:15:30;;;;;;;14.10;8.83;;;;;;;;;;5052983;28;20253;-43
2023/02/09 05:17:56;;;;;;;16.70;9.03;;;;;;;;;;5053000;28;20457;-42
2023/02/09 05:20:22;;;;;;;13.55;8.55;;;;;;;;;;5053541;28;20401;-43
2023/02/09 05:22:48;;;;;;;13.93;8.90;;;;;;;;;;5053468;28;20159;-43
2023/02/09 05:25:14;;;;;;;18.03;9.97;;;;;;;;;;5052934;28;20425;-43
2023/02/09 05:27:40;;;;;;;21.60;9.90;;;;;;;;;;5053026;28;20429;-43
2023/02/09 05:30:06;;;;;;;16.13;8.77;;;;;;;;;;5053412;28;20484;-43
2023/02/09 05:32:32;;;;;;;15.43;8.95;;;;;;;;;;5052120;28;20536;-43
2023/02/09 05:34:58;;;;;;;13.73;8.90;;;;;;;;;;5052763;28;20262;-43
2023/02/09 05:37:24;;;;;;;18.10;9.67;;;;;;;;;;5052937;28;20418;-43
2023/02/09 05:39:50;;;;;;;18.13;10.17;;;;;;;;;;5053205;28;20402;-42
2023/02/09 05:42:16;;;;;;;14.38;9.05;;;;;;;;;;5053079;28;20402;-43
2023/02/09 05:44:43;;;;;;;16.55;8.50;;;;;;;;;;5052394;28;20163;-43
2023/02/09 05:47:09;;;;;;;15.20;9.13;;;;;;;;;;5052745;28;20603;-43
2023/02/09 05:49:35;;;;;;;17.17;9.10;;;;;;;;;;5053079;28;20213;-43
2023/02/09 05:52:01;;;;;;;18.77;10.20;;;;;;;;;;5053032;28;20213;-43
2023/02/09 05:54:27;;;;;;;16.30;9.90;;;;;;;;;;5066283;28;20446;-43
2023/02/09 05:56:53;;;;;;;15.87;9.37;;;;;;;;;;5052485;28;20440;-43
2023/02/09 05:59:19;;;;;;;14.33;9.40;;;;;;;;;;5052699;28;20455;-42
2023/02/09 06:01:45;;;;;;;16.17;9.57;;;;;;;;;;5052985;28;20402;-42
2023/02/09 06:04:11;;;;;;;32.60;11.63;;;;;;;;;;5052186;28;20401;-43
2023/02/09 06:06:37;;;;;;;20.83;10.68;;;;;;;;;;5052412;28;20401;-42
2023/02/09 06:09:04;;;;;;;16.30;10.18;;;;;;;;;;5052628;28;20674;-43
2023/02/09 06:11:30;;;;;;;16.77;9.18;;;;;;;;;;5052560;28;20568;-43
2023/02/09 06:13:56;;;;;;;17.20;10.23;;;;;;;;;;5051656;28;20185;-42
2023/02/09 06:16:22;;;;;;;17.90;10.55;;;;;;;;;;5052604;28;20412;-43
2023/02/09 06:18:48;;;;;;;22.97;9.40;;;;;;;;;;5052056;28;20198;-43
2023/02/09 06:21:14;;;;;;;14.83;9.60;;;;;;;;;;5052590;28;20429;-43
2023/02/09 06:23:40;;;;;;;14.23;9.03;;;;;;;;;;5052045;28;20453;-43
2023/02/09 06:26:06;;;;;;;20.92;10.15;;;;;;;;;;5052019;28;20469;-43
2023/02/09 06:28:32;;;;;;;17.40;9.13;;;;;;;;;;5051923;28;20194;-42
2023/02/09 06:30:58;;;;;;;19.93;10.60;;;;;;;;;;5052271;28;20247;-42
2023/02/09 06:33:26;;;;;;;17.87;10.67;;;;;;;;;;5052104;28;20402;-42
2023/02/09 06:35:52;;;;;;;12.93;9.18;;;;;;;;;;5051483;28;20409;-43
2023/02/09 06:38:19;;;;;;;18.20;9.40;;;;;;;;;;5051723;28;20195;-42
2023/02/09 06:40:48;;;;;;;19.33;10.52;;;;;;;;;;5052132;28;20547;-43
2023/02/09 06:43:14;;;;;;;15.60;9.52;;;;;;;;;;5051451;28;20183;-43
2023/02/09 06:45:40;;;;;;;16.83;10.38;;;;;;;;;;5051364;28;20163;-42
2023/02/09 06:48:07;;;;;;;16.33;10.17;;;;;;;;;;5051876;28;20214;-42
2023/02/09 06:50:33;;;;;;;17.23;9.38;;;;;;;;;;5052009;28;20483;-42
2023/02/09 06:52:59;;;;;;;22.55;10.35;;;;;;;;;;5051970;28;20265;-42
2023/02/09 06:55:25;;;;;;;16.08;10.07;;;;;;;;;;5059100;28;20170;-43
2023/02/09 06:57:51;;;;;;;21.90;10.90;;;;;;;;;;5071468;28;20205;-42
2023/02/09 07:00:19;;;;;;;18.02;9.65;;;;;;;;;;5071877;28;20290;-43
2023/02/09 07:02:45;;;;;;;14.93;9.25;;;;;;;;;;5071974;28;20196;-43
2023/02/09 07:05:12;;;;;;;19.70;9.53;;;;;;;;;;5071258;28;20249;-43
2023/02/09 07:07:38;;;;;;;17.33;11.00;;;;;;;;;;5071492;28;20421;-43
2023/02/09 07:10:04;;;;;;;22.37;11.80;;;;;;;;;;5071795;28;20648;-42
2023/02/09 07:12:30;;;;;;;18.95;9.52;;;;;;;;;;5071584;28;20408;-43
2023/02/09 07:14:56;;;;;;;14.67;8.93;;;;;;;;;;5071213;28;20170;-43
2023/02/09 07:17:22;;;;;;;16.97;9.70;;;;;;;;;;5071307;28;20531;-43
2023/02/09 07:19:48;;;;;;;20.90;10.98;;;;;;;;;;5071776;28;20397;-43
2023/02/09 07:22:14;;;;;;;18.25;10.48;;;;;;;;;;5069483;28;20796;-43
2023/02/09 07:24:40;;;;;;;19.05;9.13;;;;;;;;;;5057983;28;20182;-44
2023/02/09 07:27:07;;;;;;;19.40;10.53;;;;;;;;;;5062827;28;20186;-45
2023/02/09 07:29:33;;;;;;;19.17;8.48;;;;;;;;;;5062707;28;20417;-43
2023/02/09 07:31:59;;;;;;;17.83;10.10;;;;;;;;;;5065617;28;20190;-40
2023/02/09 07:34:25;;;;;;;21.88;10.60;;;;;;;;;;5058902;28;20182;-43
2023/02/09 07:36:51;;;;;;;18.40;10.73;;;;;;;;;;5064055;28;20202;-43
2023/02/09 07:39:17;;;;;;;16.50;9.20;;;;;;;;;;5062996;28;20571;-43
2023/02/09 07:41:43;;;;;;;21.63;10.37;;;;;;;;;;5066273;28;20409;-43
2023/02/09 07:44:09;;;;;;;17.47;11.10;;;;;;;;;;5063376;28;20398;-43
2023/02/09 07:46:35;;;;;;;24.15;10.35;;;;;;;;;;5062776;28;20413;-43
2023/02/09 07:49:01;;;;;;;17.73;9.77;;;;;;;;;;5065003;28;20658;-43
2023/02/09 07:51:27;;;;;;;20.33;9.50;;;;;;;;;;5067769;28;20187;-43
2023/02/09 07:53:58;;;;;;;15.10;9.57;;;;;;;;;;5063915;28;21428;-43
2023/02/09 07:56:24;;;;;;;18.00;9.88;;;;;;;;;;5064960;28;20633;-43
2023/02/09 07:58:52;;;;;;;21.10;10.25;;;;;;;;;;5067482;28;20312;-42
2023/02/09 08:01:18;;;;;;;24.33;12.25;;;;;;;;;;5066526;28;20180;-43
2023/02/09 08:03:45;;;;;;;24.33;10.00;;;;;;;;;;5065902;28;20198;-43
2023/02/09 08:06:11;;;;;;;17.25;10.43;;;;;;;;;;5063204;28;20550;-43
2023/02/09 08:08:37;;;;;;;16.23;9.50;;;;;;;;;;5070888;28;20192;-43
2023/02/09 08:11:04;;;;;;;17.30;9.53;;;;;;;;;;5069546;28;20499;-43
2023/02/09 08:13:33;;;;;;;16.85;9.25;;;;;;;;;;5065280;28;20778;-43
2023/02/09 08:16:03;;;;;;;18.98;9.98;;;;;;;;;;5068190;28;20174;-43
2023/02/09 08:18:35;;;;;;;21.50;10.73;;;;;;;;;;5065769;28;20584;-43
2023/02/09 08:21:03;;;;;;;17.23;9.88;;;;;;;;;;5066368;28;20178;-43
2023/02/09 08:23:30;;;;;;;17.17;10.45;;;;;;;;;;5065946;28;20647;-43
2023/02/09 08:25:58;;;;;;;18.67;9.80;;;;;;;;;;5068263;28;20170;-43
2023/02/09 08:28:24;;;;;;;16.65;9.90;;;;;;;;;;5064326;28;20206;-43
2023/02/09 08:30:50;;;;;;;16.98;9.82;;;;;;;;;;5069599;28;20189;-42
2023/02/09 08:33:16;;;;;;;18.52;10.60;;;;;;;;;;5070797;28;20680;-43
2023/02/09 08:35:42;;;;;;;23.73;9.43;;;;;;;;;;5070485;28;20530;-43
2023/02/09 08:38:09;;;;;;;18.77;10.60;;;;;;;;;;5073745;28;20206;-43
2023/02/09 08:40:36;;;;;;;16.45;9.00;;;;;;;;;;5066564;28;20197;-43
2023/02/09 08:43:02;;;;;;;19.45;11.07;;;;;;;;;;5065733;28;20163;-43
2023/02/09 08:45:28;;;;;;;22.20;10.50;;;;;;;;;;5065140;28;20174;-43
2023/02/09 08:47:54;;;;;;;19.67;10.98;;;;;;;;;;5068568;28;20520;-43
2023/02/09 08:50:20;;;;;;;18.48;10.50;;;;;;;;;;5070285;28;20210;-43
2023/02/09 08:52:46;;;;;;;18.80;10.50;;;;;;;;;;5066330;28;20185;-43
2023/02/09 08:55:12;;;;;;;19.65;10.00;;;;;;;;;;5059692;28;20413;-43
2023/02/09 08:57:38;;;;;;;20.63;10.48;;;;;;;;;;5061647;28;20241;-43
2023/02/09 09:00:06;;;;;;;15.70;9.87;;;;;;;;;;5053798;28;20190;-43
2023/02/09 09:02:33;;;;;;;20.65;10.45;;;;;;;;;;5052810;28;20922;-43
2023/02/09 09:04:59;;;;;;;19.83;10.25;;;;;;;;;;5052779;28;20163;-43
2023/02/09 09:07:25;;;;;;;18.73;11.20;;;;;;;;;;5053244;28;20237;-43
2023/02/09 09:09:50;;;;;;;21.70;11.40;;;;;;;;;;5053789;28;20494;-43
2023/02/09 09:12:16;;;;;;;20.50;11.30;;;;;;;;;;5053553;28;20410;-43
2023/02/09 09:14:43;;;;;;;17.30;10.73;;;;;;;;;;5052713;28;20492;-43
2023/02/09 09:17:09;;;;;;;19.67;11.27;;;;;;;;;;5053000;28;20438;-43
2023/02/09 09:19:35;;;;;;;25.70;11.60;;;;;;;;;;5053281;28;20797;-44
2023/02/09 09:22:02;;;;;;;18.90;10.57;;;;;;;;;;5053424;28;20428;-43
2023/02/09 09:24:29;;;;;;;18.40;10.77;;;;;;;;;;5052666;28;20394;-43
2023/02/09 09:26:55;;;;;;;19.00;11.73;;;;;;;;;;5053020;28;20430;-41
2023/02/09 09:29:22;;;;;;;20.73;10.80;;;;;;;;;;5053178;28;20411;-43
2023/02/09 09:31:48;;;;;;;20.70;10.87;;;;;;;;;;5053057;28;20408;-42
2023/02/09 09:34:14;;;;;;;14.00;9.60;;;;;;;;;;5059375;28;20769;-43
2023/02/09 09:36:40;;;;;;;15.50;9.27;;;;;;;;;;5072539;28;20858;-46
2023/02/09 09:39:06;;;;;;;19.00;10.73;;;;;;;;;;5072743;28;20553;-48
2023/02/09 09:41:35;;;;;;;14.30;9.37;;;;;;;;;;5072981;28;20398;-47
2023/02/09 09:44:02;;;;;;;17.53;9.67;;;;;;;;;;5072249;28;20905;-41
2023/02/09 09:46:33;;;;;;;18.17;11.33;;;;;;;;;;5072656;28;20401;-46
2023/02/09 09:48:59;;;;;;;16.70;10.40;;;;;;;;;;5072688;28;20407;-41
2023/02/09 09:51:28;;;;;;;17.50;11.10;;;;;;;;;;5072741;28;20410;-42
2023/02/09 09:53:55;;;;;;;15.13;10.33;;;;;;;;;;5071769;28;20816;-43
2023/02/09 09:56:21;;;;;;;15.23;9.90;;;;;;;;;;5057009;28;20400;-47
2023/02/09 09:58:48;;;;;;;16.20;8.87;;;;;;;;;;5052078;28;20456;-44
2023/02/09 10:01:15;;;;;;;14.90;10.50;;;;;;;;;;5052509;28;20945;-41
2023/02/09 10:03:41;;;;;;;16.10;11.20;;;;;;;;;;5051955;28;20873;-41
2023/02/09 10:06:15;;;;;;;19.17;11.27;;;;;;;;;;5052527;28;20490;-43
2023/02/09 10:08:55;;;;;;;15.27;10.03;;;;;;;;;;5066251;28;20431;-44
2023/02/09 10:11:28;;;;;;;18.40;10.53;;;;;;;;;;5072519;28;20495;-44
2023/02/09 10:13:55;;;;;;;17.10;10.53;;;;;;;;;;5072014;28;20412;-47
2023/02/09 10:16:26;;;;;;;16.03;10.00;;;;;;;;;;5072598;28;20411;-46
2023/02/09 10:18:53;;;;;;;16.90;11.17;;;;;;;;;;5071382;28;20472;-43
2023/02/09 10:21:21;;;;;;;14.47;9.53;;;;;;;;;;5072411;28;20406;-43
2023/02/09 10:23:50;;;;;;;16.60;10.23;;;;;;;;;;5071817;28;20401;-43
2023/02/09 10:26:18;;;;;;;16.47;11.00;;;;;;;;;;5072521;28;20814;-45
2023/02/09 10:28:50;;;;;;;22.63;10.83;;;;;;;;;;5072308;28;20429;-43
2023/02/09 10:31:28;;;;;;;20.63;10.80;;;;;;;;;;5072333;28;20889;-43
2023/02/09 10:34:17;;;;;;;15.23;9.33;;;;;;;;;;5071597;28;20427;-44
2023/02/09 10:37:02;;;;;;;15.70;10.50;;;;;;;;;;5057797;28;20436;-43
2023/02/09 10:39:30;;;;;;;18.30;10.47;;;;;;;;;;5072234;28;20501;-46
2023/02/09 10:41:59;;;;;;;17.53;10.23;;;;;;;;;;5069484;28;20410;-45
2023/02/09 10:44:26;;;;;;;18.10;9.93;;;;;;;;;;5070098;28;20407;-43
2023/02/09 10:47:30;;;;;;;16.43;9.27;;;;;;;;;;5071626;28;20429;-43
2023/02/09 10:50:11;;;;;;;13.57;9.00;;;;;;;;;;4990219;28;20398;-43
2023/02/09 10:52:42;;;;;;;15.33;10.00;;;;;;;;;;4990211;28;20418;-44
2023/02/09 10:55:15;;;;;;;13.73;9.70;;;;;;;;;;5033769;28;20817;-44
2023/02/09 10:57:41;;;;;;;15.03;10.67;;;;;;;;;;5051347;28;20452;-43
2023/02/09 11:00:17;;;;;;;13.40;9.40;;;;;;;;;;5051653;28;20398;-43
2023/02/09 11:03:01;;;;;;;17.37;10.33;;;;;;;;;;5051575;28;20827;-43
2023/02/09 11:05:32;;;;;;;12.07;8.57;;;;;;;;;;5050874;28;20390;-46
2023/02/09 11:08:05;;;;;;;13.77;9.20;;;;;;;;;;5051349;28;20425;-46
2023/02/09 11:10:34;;;;;;;16.57;9.50;;;;;;;;;;5051718;28;20421;-46
2023/02/09 11:13:00;;;;;;;13.53;8.93;;;;;;;;;;5051635;28;20414;-47
2023/02/09 11:15:27;;;;;;;19.07;10.03;;;;;;;;;;5051040;28;20411;-47
2023/02/09 11:18:16;;;;;;;19.17;10.97;;;;;;;;;;5051412;28;20523;-46
2023/02/09 11:20:51;;;;;;;16.23;10.10;;;;;;;;;;5051491;28;20412;-45
2023/02/09 11:23:23;;;;;;;14.10;9.30;;;;;;;;;;5051506;28;20398;-44
2023/02/09 11:26:00;;;;;;;12.93;8.93;;;;;;;;;;5050985;28;20412;-47
2023/02/09 11:28:34;;;;;;;17.20;10.60;;;;;;;;;;5051234;28;20441;-46
2023/02/09 11:31:09;;;;;;;13.30;9.63;;;;;;;;;;5055153;28;20414;-43
2023/02/09 11:33:54;;;;;;;15.70;9.80;;;;;;;;;;5055489;28;20403;-41
2023/02/09 11:36:38;;;;;;;68.17;32.77;;;;;;;;;;5058118;28;20462;-42
2023/02/09 11:39:17;;;;;;;13.67;9.73;;;;;;;;;;5055304;28;21013;-45
2023/02/09 11:44:51;;;;;;;15.33;9.70;;;;;;;;;;5054682;28;20825;-44
2023/02/09 11:47:20;;;;;;;13.53;9.80;;;;;;;;;;5055536;28;20445;-44
2023/02/09 11:49:48;;;;;;;14.87;9.63;;;;;;;;;;5055172;28;20967;-43
2023/02/09 11:52:22;;;;;;;15.43;10.60;;;;;;;;;;5055185;28;20782;-43
2023/02/09 11:54:49;;;;;;;13.13;9.90;;;;;;;;;;5057167;28;20407;-43
2023/02/09 11:57:20;;;;;;;14.07;10.23;;;;;;;;;;5074956;28;20421;-43
2023/02/09 11:59:55;;;;;;;14.07;9.10;;;;;;;;;;5074892;28;20448;-43
2023/02/09 12:02:40;;;;;;;16.77;9.70;;;;;;;;;;5075016;28;20402;-43
2023/02/09 12:05:10;;;;;;;13.07;9.30;;;;;;;;;;5074133;28;20547;-44
2023/02/09 12:07:36;;;;;;;16.07;10.53;;;;;;;;;;5074815;28;20452;-43
2023/02/09 12:10:04;;;;;;;12.30;8.90;;;;;;;;;;5074760;28;20433;-44
2023/02/09 12:12:34;;;;;;;13.70;10.17;;;;;;;;;;5074586;28;20401;-43
2023/02/09 12:15:03;;;;;;;15.47;9.30;;;;;;;;;;5074048;28;20467;-43
2023/02/09 12:17:47;;;;;;;18.13;9.43;;;;;;;;;;5074274;28;20948;-43
2023/02/09 12:20:28;;;;;;;13.57;9.50;;;;;;;;;;5074473;28;20406;-43
2023/02/09 12:23:17;;;;;;;16.57;10.27;;;;;;;;;;5074413;28;20409;-43
2023/02/09 12:25:48;;;;;;;15.70;9.70;;;;;;;;;;5063533;28;20994;-43
2023/02/09 12:28:37;;;;;;;19.00;9.97;;;;;;;;;;5074467;28;20465;-43
2023/02/09 12:31:05;;;;;;;13.10;9.50;;;;;;;;;;5074515;28;20410;-43
2023/02/09 12:33:33;;;;;;;13.40;10.10;;;;;;;;;;5074300;28;20407;-43
2023/02/09 12:36:08;;;;;;;14.07;9.97;;;;;;;;;;5073667;28;20438;-43
2023/02/09 12:38:58;;;;;;;20.63;10.50;;;;;;;;;;5074355;28;20439;-43
2023/02/09 12:41:47;;;;;;;13.50;9.53;;;;;;;;;;5073745;28;20894;-43
2023/02/09 12:44:17;;;;;;;17.33;9.67;;;;;;;;;;5036149;28;20416;-43
2023/02/09 12:46:51;;;;;;;17.40;10.67;;;;;;;;;;5074281;28;20399;-43
2023/02/09 12:49:30;;;;;;;16.53;9.20;;;;;;;;;;5074124;28;20406;-43
2023/02/09 12:51:59;;;;;;;17.60;9.13;;;;;;;;;;5074154;28;20439;-43
2023/02/09 12:54:44;;;;;;;16.17;9.70;;;;;;;;;;5073387;28;20416;-43
2023/02/09 12:57:17;;;;;;;12.67;8.73;;;;;;;;;;5053999;28;20475;-43
2023/02/09 12:59:49;;;;;;;13.53;8.40;;;;;;;;;;5053989;28;20810;-43
2023/02/09 13:02:37;;;;;;;12.90;9.20;;;;;;;;;;5053844;28;20476;-44
2023/02/09 13:05:18;;;;;;;14.03;9.33;;;;;;;;;;5053270;28;20399;-43
2023/02/09 13:07:53;;;;;;;15.30;9.10;;;;;;;;;;5053861;28;20988;-44
2023/02/09 13:10:19;;;;;;;13.57;8.67;;;;;;;;;;5053919;28;20771;-43
2023/02/09 13:12:47;;;;;;;15.60;9.30;;;;;;;;;;5053745;28;20394;-43
2023/02/09 13:15:14;;;;;;;11.10;7.73;;;;;;;;;;5053033;28;20425;-43
2023/02/09 13:17:52;;;;;;;12.10;7.87;;;;;;;;;;5053366;28;20441;-44
2023/02/09 13:20:33;;;;;;;10.57;7.80;;;;;;;;;;5053742;28;20486;-43
2023/02/09 13:23:09;;;;;;;14.47;9.10;;;;;;;;;;5053559;28;20488;-43
2023/02/09 13:25:37;;;;;;;14.97;8.73;;;;;;;;;;5052931;28;20496;-43
2023/02/09 13:28:08;;;;;;;13.10;9.57;;;;;;;;;;5053281;28;20801;-43
2023/02/09 13:30:34;;;;;;;14.70;9.60;;;;;;;;;;5053565;28;20406;-43
2023/02/09 13:33:03;;;;;;;12.50;9.30;;;;;;;;;;5052572;28;20490;-43
2023/02/09 13:35:35;;;;;;;18.70;9.40;;;;;;;;;;5052647;28;20426;-43
2023/02/09 13:38:09;;;;;;;11.80;7.77;;;;;;;;;;5053086;28;20483;-43
2023/02/09 13:40:34;;;;;;;12.03;7.70;;;;;;;;;;5053233;28;20401;-43
2023/02/09 13:43:16;;;;;;;12.70;8.23;;;;;;;;;;5069517;28;20408;-43
2023/02/09 13:45:49;;;;;;;11.93;7.77;;;;;;;;;;5072478;28;20434;-43
2023/02/09 13:48:27;;;;;;;12.93;8.20;;;;;;;;;;5070281;28;20941;-43
2023/02/09 13:50:54;;;;;;;13.53;9.03;;;;;;;;;;5072932;28;20418;-43
2023/02/09 13:53:21;;;;;;;13.20;8.73;;;;;;;;;;5072129;28;20500;-43
2023/02/09 13:55:48;;;;;;;13.83;8.40;;;;;;;;;;5061248;28;20410;-43
2023/02/09 13:58:18;;;;;;;12.83;8.70;;;;;;;;;;5052560;28;20463;-43
2023/02/09 14:00:46;;;;;;;11.73;9.10;;;;;;;;;;5052447;28;20420;-43
2023/02/09 14:03:26;;;;;;;13.37;8.87;;;;;;;;;;5052513;28;20404;-43
2023/02/09 14:06:04;;;;;;;15.57;8.90;;;;;;;;;;5052026;28;20406;-43
2023/02/09 14:08:31;;;;;;;15.00;8.43;;;;;;;;;;5052488;28;20421;-43
2023/02/09 14:10:57;;;;;;;10.13;7.70;;;;;;;;;;5052320;28;20782;-43
2023/02/09 14:13:27;;;;;;;14.07;9.60;;;;;;;;;;5052218;28;20497;-43
2023/02/09 14:16:08;;;;;;;12.83;8.90;;;;;;;;;;5060022;28;20573;-44
2023/02/09 14:18:46;;;;;;;14.30;8.03;;;;;;;;;;5049323;28;20467;-44
2023/02/09 14:21:12;;;;;;;15.20;10.67;;;;;;;;;;5048413;28;20413;-44
2023/02/09 14:23:39;;;;;;;14.00;9.50;;;;;;;;;;5048208;28;20777;-44
2023/02/09 14:26:14;;;;;;;14.83;9.07;;;;;;;;;;5047453;28;20426;-44
2023/02/09 14:28:40;;;;;;;14.33;9.37;;;;;;;;;;5048256;28;20502;-44
2023/02/09 14:31:18;;;;;;;13.70;8.90;;;;;;;;;;5048449;28;20435;-44
2023/02/09 14:33:47;;;;;;;14.87;8.70;;;;;;;;;;5047877;28;20400;-45
2023/02/09 14:36:24;;;;;;;15.87;9.17;;;;;;;;;;5048376;28;20393;-44
2023/02/09 14:38:50;;;;;;;11.50;8.63;;;;;;;;;;5048531;28;20429;-44
2023/02/09 14:41:30;;;;;;;13.13;9.10;;;;;;;;;;5048272;28;20882;-44
2023/02/09 14:44:00;;;;;;;14.43;9.80;;;;;;;;;;5027738;28;20517;-44
2023/02/09 14:46:26;;;;;;;16.60;9.70;;;;;;;;;;5028292;28;20434;-44